Time;durP1;ratioP1;P1;durP2;ratioP2;P2;SDS_P1;SDS_P2;PMS_P1;PMS_P2;Temp;Humidity;BMP_temperature;BMP_pressure;BME280_temperature;BME280_humidity;BME280_pressure;Samples;Min_cycle;Max_cycle;Signal;HPM_P1;HPM_P2
2023/03/23 00:01:36;;;;;;;2.58;1.20;;;11.50;99.90;;;;;;4952163;28;20069;-83
2023/03/23 00:04:03;;;;;;;5.50;2.25;;;11.50;99.90;;;;;;4970158;28;20034;-83
2023/03/23 00:06:32;;;;;;;3.13;1.67;;;11.50;99.90;;;;;;4974463;28;20069;-82
2023/03/23 00:09:02;;;;;;;3.42;1.63;;;11.60;99.90;;;;;;4976444;28;20543;-83
2023/03/23 00:11:31;;;;;;;5.53;1.75;;;11.60;99.90;;;;;;4954804;28;20033;-82
2023/03/23 00:14:00;;;;;;;2.92;1.40;;;11.50;99.90;;;;;;4956904;28;20038;-81
2023/03/23 00:16:32;;;;;;;5.43;2.33;;;11.50;99.90;;;;;;4982677;28;20132;-82
2023/03/23 00:19:05;;;;;;;5.18;1.70;;;11.50;99.90;;;;;;4981701;28;20049;-82
2023/03/23 00:21:36;;;;;;;3.88;1.45;;;11.50;99.90;;;;;;4968669;28;20046;-85
2023/03/23 00:24:05;;;;;;;2.95;1.13;;;11.60;99.90;;;;;;4970689;28;20532;-81
2023/03/23 00:26:33;;;;;;;2.80;1.20;;;11.60;99.90;;;;;;4982211;28;20059;-81
2023/03/23 00:29:26;;;;;;;4.40;1.50;;;11.60;99.90;;;;;;4981852;28;20180;-84
2023/03/23 00:31:53;;;;;;;3.42;1.63;;;11.60;99.80;;;;;;4972174;28;20155;-84
2023/03/23 00:34:21;;;;;;;2.80;1.17;;;11.60;99.80;;;;;;4963241;28;20090;-80
2023/03/23 00:36:49;;;;;;;2.65;1.20;;;11.60;99.80;;;;;;4995987;28;20057;-80
2023/03/23 00:39:16;;;;;;;3.90;1.83;;;11.60;99.70;;;;;;4965424;28;20628;-81
2023/03/23 00:41:46;;;;;;;4.25;1.63;;;11.60;99.70;;;;;;4969927;28;20038;-81
2023/03/23 00:44:19;;;;;;;3.40;1.65;;;11.60;99.60;;;;;;4973713;28;20080;-80
2023/03/23 00:46:50;;;;;;;3.53;1.75;;;11.60;99.60;;;;;;4976939;28;20069;-81
2023/03/23 00:49:24;;;;;;;4.50;1.80;;;11.60;99.50;;;;;;4958171;28;20112;-81
2023/03/23 00:51:50;;;;;;;3.85;2.05;;;11.60;99.50;;;;;;4978578;28;20037;-81
2023/03/23 00:54:16;;;;;;;3.70;1.60;;;11.60;99.40;;;;;;4981022;28;20038;-81
2023/03/23 00:56:42;;;;;;;3.63;1.42;;;11.70;99.40;;;;;;4965063;28;20482;-81
2023/03/23 00:59:08;;;;;;;2.80;1.42;;;11.60;99.40;;;;;;4964842;28;20034;-81
2023/03/23 01:01:35;;;;;;;4.03;1.83;;;11.60;99.30;;;;;;4980280;28;20040;-81
2023/03/23 01:04:03;;;;;;;3.50;1.50;;;11.70;99.30;;;;;;4964927;28;20065;-81
2023/03/23 01:06:40;;;;;;;2.85;1.38;;;11.60;99.30;;;;;;4979997;28;20044;-81
2023/03/23 01:09:08;;;;;;;2.90;1.50;;;11.60;99.40;;;;;;4980471;28;20044;-81
2023/03/23 01:11:34;;;;;;;2.47;1.30;;;11.60;99.40;;;;;;4982428;28;20471;-81
2023/03/23 01:14:01;;;;;;;2.58;0.90;;;11.50;99.30;;;;;;4954554;28;20034;-81
2023/03/23 01:16:29;;;;;;;2.60;1.30;;;11.50;99.30;;;;;;4964736;28;20057;-81
2023/03/23 01:18:56;;;;;;;3.50;1.33;;;11.50;99.40;;;;;;4949066;28;20088;-81
2023/03/23 01:21:24;;;;;;;3.85;1.30;;;11.50;99.40;;;;;;4948783;28;20034;-81
2023/03/23 01:23:51;;;;;;;3.90;1.70;;;11.50;99.40;;;;;;4965311;28;20456;-81
2023/03/23 01:26:22;;;;;;;3.40;1.40;;;11.40;99.40;;;;;;4942641;28;20061;-80
2023/03/23 01:28:48;;;;;;;3.83;1.73;;;11.40;99.50;;;;;;4977141;28;20395;-80
2023/03/23 01:31:16;;;;;;;4.47;2.33;;;11.40;99.50;;;;;;4936462;28;20046;-80
2023/03/23 01:33:43;;;;;;;4.25;2.05;;;11.40;99.40;;;;;;4961466;28;20038;-81
2023/03/23 01:36:15;;;;;;;3.15;1.67;;;11.40;99.40;;;;;;4961549;28;20048;-81
2023/03/23 01:38:44;;;;;;;3.15;1.63;;;11.40;99.40;;;;;;4947591;28;20049;-80
2023/03/23 01:41:11;;;;;;;2.70;1.50;;;11.40;99.40;;;;;;4969143;28;20490;-80
2023/03/23 01:44:16;;;;;;;4.32;1.92;;;11.40;99.40;;;;;;4954745;28;20430;-80
2023/03/23 01:47:09;;;;;;;4.03;1.20;;;11.50;99.30;;;;;;4930292;29;20069;-80
2023/03/23 01:49:41;;;;;;;3.88;1.67;;;11.50;99.20;;;;;;4945590;28;20483;-81
2023/03/23 01:52:18;;;;;;;3.20;1.35;;;11.50;99.20;;;;;;4961027;28;20465;-80
2023/03/23 01:54:47;;;;;;;3.88;1.85;;;11.50;99.10;;;;;;4954282;28;20097;-80
2023/03/23 01:57:16;;;;;;;2.75;1.45;;;11.50;99.10;;;;;;4945629;28;20046;-80
2023/03/23 01:59:47;;;;;;;2.03;0.88;;;11.50;99.10;;;;;;4945292;28;20042;-80
2023/03/23 02:02:26;;;;;;;2.20;1.02;;;11.50;99.10;;;;;;4958623;28;20038;-80
2023/03/23 02:04:59;;;;;;;2.13;1.05;;;11.50;99.20;;;;;;4957960;28;20035;-80
2023/03/23 02:07:31;;;;;;;3.20;1.60;;;11.50;99.10;;;;;;4973756;28;20065;-80
2023/03/23 02:10:00;;;;;;;6.30;1.40;;;11.50;99.10;;;;;;4960786;28;20038;-80
2023/03/23 02:12:28;;;;;;;2.65;1.20;;;11.50;99.10;;;;;;4967147;28;20487;-80
2023/03/23 02:14:54;;;;;;;3.45;1.45;;;11.50;99.00;;;;;;4942842;28;20395;-81
2023/03/23 02:17:40;;;;;;;2.88;1.45;;;11.60;99.00;;;;;;4944786;28;20058;-80
2023/03/23 02:20:18;;;;;;;3.25;1.60;;;11.60;99.00;;;;;;4960538;28;20103;-80
2023/03/23 02:22:59;;;;;;;3.33;1.30;;;11.60;99.00;;;;;;4966905;28;20119;-80
2023/03/23 02:26:11;;;;;;;2.30;1.27;;;11.60;98.90;;;;;;4964433;28;20398;-80
2023/03/23 02:29:07;;;;;;;4.55;1.70;;;11.60;98.90;;;;;;4965100;28;20402;-81
2023/03/23 02:32:05;;;;;;;4.45;2.10;;;11.70;98.90;;;;;;4966340;28;20445;-80
2023/03/23 02:35:03;;;;;;;4.20;2.10;;;11.70;98.80;;;;;;4979800;28;20505;-80
2023/03/23 02:37:32;;;;;;;3.35;1.60;;;11.80;98.80;;;;;;4949880;28;20046;-80
2023/03/23 02:40:16;;;;;;;3.00;1.20;;;11.70;98.80;;;;;;4945412;28;20062;-80
2023/03/23 02:42:47;;;;;;;4.25;1.70;;;11.70;98.80;;;;;;4957203;28;20042;-80
2023/03/23 02:45:15;;;;;;;3.78;1.35;;;11.70;98.80;;;;;;4947867;28;20034;-80
2023/03/23 02:47:42;;;;;;;3.03;1.42;;;11.70;98.80;;;;;;4968674;28;20124;-80
2023/03/23 02:50:13;;;;;;;3.08;1.33;;;11.80;99.00;;;;;;4947493;28;20404;-80
2023/03/23 02:52:42;;;;;;;3.53;1.88;;;11.80;98.70;;;;;;4972417;28;20069;-80
2023/03/23 02:55:11;;;;;;;4.90;2.25;;;11.80;98.70;;;;;;4971129;28;20042;-79
2023/03/23 02:57:38;;;;;;;5.32;2.20;;;11.80;98.60;;;;;;4939370;28;20045;-80
2023/03/23 03:00:09;;;;;;;3.83;2.20;;;11.80;98.60;;;;;;4971472;28;20041;-80
2023/03/23 03:02:40;;;;;;;4.30;2.15;;;11.90;98.50;;;;;;4962241;28;20042;-80
2023/03/23 03:05:32;;;;;;;2.20;1.23;;;11.90;98.50;;;;;;4959826;28;20038;-80
2023/03/23 03:08:18;;;;;;;5.70;1.85;;;11.90;98.50;;;;;;4932827;28;20053;-80
2023/03/23 03:11:11;;;;;;;2.92;1.40;;;11.90;98.50;;;;;;4958430;28;20488;-80
2023/03/23 03:13:53;;;;;;;;;;;11.90;98.50;;;;;;4960851;28;20035;-80
2023/03/23 03:16:45;;;;;;;3.33;1.73;;;11.80;98.50;;;;;;4979812;28;19917;-80
2023/03/23 03:19:18;;;;;;;3.08;1.48;;;11.90;98.50;;;;;;4971610;28;20042;-80
2023/03/23 03:21:50;;;;;;;3.72;1.80;;;11.80;98.40;;;;;;4953462;28;20038;-80
2023/03/23 03:24:25;;;;;;;3.95;1.80;;;11.80;98.40;;;;;;4956193;28;20030;-80
2023/03/23 03:26:53;;;;;;;3.10;1.50;;;11.90;98.40;;;;;;4963677;28;20038;-80
2023/03/23 03:29:43;;;;;;;3.00;1.60;;;11.90;98.40;;;;;;4995933;28;20053;-80
2023/03/23 03:32:14;;;;;;;2.67;1.20;;;11.90;98.40;;;;;;4948022;28;20073;-80
2023/03/23 03:34:41;;;;;;;3.57;1.87;;;11.90;98.40;;;;;;4947435;28;20065;-80
2023/03/23 03:37:07;;;;;;;3.30;1.80;;;11.90;98.30;;;;;;4945483;28;20037;-80
2023/03/23 03:39:36;;;;;;;4.00;1.58;;;11.90;98.20;;;;;;4961089;28;20129;-80
2023/03/23 03:42:06;;;;;;;2.88;1.50;;;12.00;98.20;;;;;;4960939;28;20046;-80
2023/03/23 03:44:33;;;;;;;4.10;1.98;;;11.90;98.20;;;;;;4973599;28;20049;-80
2023/03/23 03:47:00;;;;;;;3.17;1.67;;;11.90;98.20;;;;;;4965973;28;20092;-80
2023/03/23 03:49:26;;;;;;;3.42;1.73;;;11.90;98.20;;;;;;4963942;28;20034;-80
2023/03/23 03:51:54;;;;;;;3.38;1.67;;;11.90;98.20;;;;;;4968532;28;20042;-80
2023/03/23 03:54:43;;;;;;;3.58;2.40;;;11.90;98.20;;;;;;4967001;28;20046;-79
2023/03/23 03:57:09;;;;;;;3.95;2.10;;;11.90;98.10;;;;;;4967159;28;20034;-80
2023/03/23 03:59:38;;;;;;;6.05;2.72;;;12.00;98.10;;;;;;4960060;28;20407;-80
2023/03/23 04:02:24;;;;;;;3.53;2.42;;;12.00;98.10;;;;;;4976030;28;20048;-80
2023/03/23 04:04:52;;;;;;;3.13;1.63;;;12.00;98.00;;;;;;4948396;28;20398;-80
2023/03/23 04:07:18;;;;;;;4.70;2.10;;;12.00;98.00;;;;;;4960454;28;20117;-80
2023/03/23 04:09:47;;;;;;;3.42;1.67;;;12.00;97.90;;;;;;4970654;28;20474;-80
2023/03/23 04:12:15;;;;;;;3.88;2.05;;;12.00;98.00;;;;;;4953330;28;20398;-80
2023/03/23 04:14:56;;;;;;;4.28;2.00;;;12.00;97.90;;;;;;4981844;28;20122;-80
2023/03/23 04:17:29;;;;;;;5.00;1.88;;;12.10;97.80;;;;;;4948850;28;20040;-80
2023/03/23 04:19:59;;;;;;;3.25;1.40;;;12.10;97.70;;;;;;4934976;28;20132;-79
2023/03/23 04:22:30;;;;;;;3.83;2.08;;;12.10;97.60;;;;;;4982299;28;20050;-80
2023/03/23 04:25:02;;;;;;;3.90;2.50;;;12.20;97.60;;;;;;4965081;28;20397;-80
2023/03/23 04:27:29;;;;;;;3.50;2.05;;;12.20;97.50;;;;;;4981946;28;20030;-80
2023/03/23 04:29:59;;;;;;;3.35;1.58;;;12.20;97.40;;;;;;4965463;28;20058;-80
2023/03/23 04:32:44;;;;;;;4.13;2.03;;;12.20;97.40;;;;;;4964753;28;20038;-80
2023/03/23 04:35:14;;;;;;;3.83;2.08;;;12.20;97.30;;;;;;4980737;28;20057;-80
2023/03/23 04:38:04;;;;;;;3.70;1.92;;;12.20;97.20;;;;;;4975320;28;20049;-80
2023/03/23 04:40:30;;;;;;;5.13;1.75;;;12.20;97.20;;;;;;4981024;28;20564;-80
2023/03/23 04:43:12;;;;;;;3.38;1.60;;;12.20;97.10;;;;;;4961186;28;20041;-80
2023/03/23 04:46:08;;;;;;;3.00;1.58;;;12.30;97.10;;;;;;4962185;28;20041;-80
2023/03/23 04:48:35;;;;;;;5.38;2.58;;;12.30;97.00;;;;;;4964475;28;20034;-80
2023/03/23 04:51:18;;;;;;;2.40;1.50;;;12.30;96.90;;;;;;4983555;28;20030;-80
2023/03/23 04:53:47;;;;;;;5.78;1.98;;;12.30;96.80;;;;;;4950631;28;20453;-80
2023/03/23 04:56:13;;;;;;;4.40;1.55;;;12.30;96.70;;;;;;4965308;28;20046;-80
2023/03/23 04:58:44;;;;;;;3.78;1.42;;;12.40;96.60;;;;;;4950716;28;20038;-79
2023/03/23 05:01:33;;;;;;;4.45;1.27;;;12.40;96.50;;;;;;4971337;28;20129;-80
2023/03/23 05:04:29;;;;;;;4.65;1.58;;;12.40;96.50;;;;;;4959227;28;20045;-80
2023/03/23 05:07:01;;;;;;;3.80;1.65;;;12.40;96.50;;;;;;4981915;28;20045;-80
2023/03/23 05:09:30;;;;;;;5.80;1.73;;;12.40;96.20;;;;;;4936920;28;20096;-80
2023/03/23 05:11:59;;;;;;;9.38;1.40;;;12.40;96.20;;;;;;4945567;28;20487;-80
2023/03/23 05:14:25;;;;;;;4.43;1.80;;;12.40;96.00;;;;;;4974983;28;20034;-80
2023/03/23 05:17:02;;;;;;;3.28;1.55;;;12.40;96.00;;;;;;4979042;28;20371;-80
2023/03/23 05:19:29;;;;;;;2.85;1.10;;;12.40;96.00;;;;;;4947232;28;20034;-80
2023/03/23 05:22:02;;;;;;;3.22;1.02;;;12.30;95.70;;;;;;4966823;28;20037;-80
2023/03/23 05:24:32;;;;;;;5.40;1.48;;;12.30;95.70;;;;;;4965902;28;20867;-80
2023/03/23 05:27:03;;;;;;;5.32;1.10;;;12.30;95.70;;;;;;4968971;28;20033;-80
2023/03/23 05:29:36;;;;;;;5.32;1.25;;;12.40;95.60;;;;;;4960216;28;20049;-80
2023/03/23 05:32:07;;;;;;;5.78;1.33;;;12.40;95.50;;;;;;4975542;28;20126;-80
2023/03/23 05:34:36;;;;;;;3.65;1.33;;;12.40;95.50;;;;;;4930467;28;20039;-80
2023/03/23 05:37:03;;;;;;;4.20;1.25;;;12.40;95.40;;;;;;4986762;28;20064;-80
2023/03/23 05:39:45;;;;;;;2.25;0.90;;;12.40;95.40;;;;;;4967526;28;20080;-80
2023/03/23 05:42:37;;;;;;;3.30;0.75;;;12.40;95.50;;;;;;4941610;28;20050;-80
2023/03/23 05:45:11;;;;;;;4.43;1.38;;;12.30;95.50;;;;;;4958937;28;20034;-80
2023/03/23 05:47:40;;;;;;;2.30;0.70;;;12.30;95.50;;;;;;4964541;28;20121;-80
2023/03/23 05:50:10;;;;;;;2.70;1.10;;;12.30;95.50;;;;;;4967533;28;20482;-79
2023/03/23 05:52:38;;;;;;;4.63;0.82;;;12.30;95.50;;;;;;4949003;28;20077;-80
2023/03/23 05:55:08;;;;;;;3.75;0.88;;;12.30;95.30;;;;;;4990225;28;20087;-80
2023/03/23 05:57:36;;;;;;;2.70;0.70;;;12.30;95.30;;;;;;4951511;28;20045;-79
2023/03/23 06:00:19;;;;;;;2.95;0.65;;;12.30;95.30;;;;;;4949596;28;20421;-79
2023/03/23 06:02:51;;;;;;;2.25;0.60;;;12.30;95.40;;;;;;4958023;28;20050;-80
2023/03/23 06:05:26;;;;;;;3.22;0.90;;;12.30;95.30;;;;;;4943063;28;20034;-79
2023/03/23 06:07:54;;;;;;;5.13;1.30;;;12.30;95.10;;;;;;4926567;28;20038;-80
2023/03/23 06:10:21;;;;;;;3.30;0.60;;;12.40;95.10;;;;;;4957479;28;20454;-80
2023/03/23 06:12:53;;;;;;;4.20;0.75;;;12.40;95.10;;;;;;4960160;28;20058;-79
2023/03/23 06:15:31;;;;;;;2.05;0.50;;;12.40;95.00;;;;;;4954222;28;20499;-80
2023/03/23 06:18:12;;;;;;;3.00;0.50;;;12.40;95.00;;;;;;4929886;28;20498;-80
2023/03/23 06:21:00;;;;;;;2.53;0.63;;;12.40;95.10;;;;;;4954706;28;20040;-79
2023/03/23 06:23:52;;;;;;;2.05;0.50;;;12.40;95.10;;;;;;4945604;28;20042;-80
2023/03/23 06:26:22;;;;;;;3.38;0.63;;;12.40;95.00;;;;;;4943404;28;20034;-80
2023/03/23 06:28:54;;;;;;;3.75;0.70;;;12.50;95.00;;;;;;4960708;28;20446;-80
2023/03/23 06:31:20;;;;;;;4.80;0.70;;;12.50;94.90;;;;;;4946052;28;20049;-80
2023/03/23 06:33:48;;;;;;;2.78;0.60;;;12.60;94.90;;;;;;4952829;28;20048;-80
2023/03/23 06:36:40;;;;;;;2.78;0.80;;;12.60;94.70;;;;;;4938848;28;20114;-80
2023/03/23 06:39:12;;;;;;;3.63;0.77;;;12.60;94.60;;;;;;4961585;28;20106;-80
2023/03/23 06:41:59;;;;;;;4.72;0.50;;;12.60;94.60;;;;;;4962395;28;20129;-80
2023/03/23 06:44:29;;;;;;;1.38;0.40;;;12.60;94.70;;;;;;4945051;28;20034;-80
2023/03/23 06:46:56;;;;;;;6.63;0.68;;;12.60;94.70;;;;;;4946750;28;20491;-79
2023/03/23 06:49:28;;;;;;;5.45;0.70;;;12.60;94.60;;;;;;4940901;28;20125;-80
2023/03/23 06:52:03;;;;;;;5.32;1.00;;;12.60;94.50;;;;;;4946504;28;20142;-80
2023/03/23 06:54:31;;;;;;;2.92;0.52;;;12.60;94.50;;;;;;4944611;28;20044;-80
2023/03/23 06:57:00;;;;;;;4.75;1.25;;;12.60;94.50;;;;;;4975854;28;20040;-80
2023/03/23 06:59:26;;;;;;;4.28;0.85;;;12.60;94.50;;;;;;4943939;28;20068;-80
2023/03/23 07:01:52;;;;;;;4.97;0.60;;;12.60;94.50;;;;;;4959854;28;20042;-80
2023/03/23 07:04:18;;;;;;;2.45;0.55;;;12.60;94.50;;;;;;4962195;28;20438;-79
2023/03/23 07:06:53;;;;;;;2.60;0.68;;;12.60;94.40;;;;;;4966066;28;20038;-79
2023/03/23 07:09:19;;;;;;;5.15;0.90;;;12.60;94.50;;;;;;4957868;28;20035;-80
2023/03/23 07:11:47;;;;;;;3.88;0.75;;;12.60;94.40;;;;;;4944210;28;20039;-82
2023/03/23 07:14:22;;;;;;;3.25;0.60;;;12.60;94.30;;;;;;4977140;28;20088;-82
2023/03/23 07:16:49;;;;;;;4.47;0.60;;;12.60;94.40;;;;;;4944275;28;20031;-82
2023/03/23 07:19:15;;;;;;;3.47;1.27;;;12.60;94.40;;;;;;4963112;28;20030;-82
2023/03/23 07:21:41;;;;;;;1.58;0.50;;;12.70;94.50;;;;;;4981642;28;20038;-82
2023/03/23 07:24:13;;;;;;;3.38;0.70;;;12.70;94.40;;;;;;4959997;28;20506;-82
2023/03/23 07:26:56;;;;;;;5.28;1.08;;;12.70;94.30;;;;;;4948553;28;20089;-82
2023/03/23 07:29:22;;;;;;;4.32;0.80;;;12.70;94.30;;;;;;4963210;28;20109;-82
2023/03/23 07:32:00;;;;;;;4.95;0.90;;;12.70;94.30;;;;;;4964605;28;20061;-82
2023/03/23 07:34:25;;;;;;;5.63;1.45;;;12.70;94.30;;;;;;4969434;28;20042;-82
2023/03/23 07:37:03;;;;;;;5.30;0.90;;;12.80;94.30;;;;;;4952900;28;20393;-82
2023/03/23 07:39:33;;;;;;;4.40;1.13;;;12.80;94.20;;;;;;4944946;28;20039;-81
2023/03/23 07:42:00;;;;;;;6.63;1.02;;;12.80;94.20;;;;;;4977646;28;20076;-82
2023/03/23 07:44:46;;;;;;;3.28;0.80;;;12.80;93.60;;;;;;4970615;28;20037;-82
2023/03/23 07:47:13;;;;;;;3.88;0.60;;;12.80;93.50;;;;;;4967499;28;20038;-82
2023/03/23 07:49:39;;;;;;;3.85;0.95;;;12.80;93.20;;;;;;4976414;28;20508;-82
2023/03/23 07:52:15;;;;;;;2.60;0.73;;;12.80;93.40;;;;;;4968425;28;20044;-82
2023/03/23 07:54:41;;;;;;;3.20;0.60;;;12.70;93.40;;;;;;4983335;28;20045;-82
2023/03/23 07:57:16;;;;;;;1.60;0.47;;;12.70;93.40;;;;;;4968921;28;20501;-82
2023/03/23 07:59:49;;;;;;;2.35;0.38;;;12.60;93.50;;;;;;4949220;28;20034;-82
2023/03/23 08:02:16;;;;;;;2.40;0.57;;;12.50;93.70;;;;;;4950413;28;20048;-82
2023/03/23 08:05:00;;;;;;;4.53;0.73;;;12.30;93.90;;;;;;4973844;28;20081;-82
2023/03/23 08:07:42;;;;;;;3.73;1.03;;;12.20;94.20;;;;;;4986652;28;20087;-82
2023/03/23 08:10:18;;;;;;;3.20;0.88;;;12.10;94.40;;;;;;5000512;28;20789;-82
2023/03/23 08:13:20;;;;;;;4.30;0.73;;;11.90;94.70;;;;;;4962647;28;20042;-82
2023/03/23 08:16:09;;;;;;;3.08;0.95;;;11.80;95.10;;;;;;4972824;28;20046;-82
2023/03/23 08:19:02;;;;;;;1.73;0.63;;;11.80;95.40;;;;;;4985461;28;20076;-82
2023/03/23 08:22:00;;;;;;;5.50;0.80;;;11.80;95.50;;;;;;4947957;28;20039;-82
2023/03/23 08:24:49;;;;;;;5.50;0.80;;;11.80;95.70;;;;;;4954864;28;20035;-82
2023/03/23 08:27:25;;;;;;;3.13;0.65;;;11.80;95.80;;;;;;4982119;28;20037;-82
2023/03/23 08:30:18;;;;;;;4.32;1.13;;;11.80;95.90;;;;;;4981467;28;20050;-82
2023/03/23 08:32:45;;;;;;;3.95;1.30;;;11.80;96.00;;;;;;4962561;28;20050;-83
2023/03/23 08:35:28;;;;;;;5.05;1.25;;;11.90;96.10;;;;;;4964765;28;20064;-82
2023/03/23 08:38:09;;;;;;;5.68;1.65;;;11.90;96.30;;;;;;4964372;28;20134;-82
2023/03/23 08:41:00;;;;;;;6.28;1.30;;;11.90;96.30;;;;;;4980821;28;20497;-82
2023/03/23 08:43:46;;;;;;;5.13;1.75;;;11.90;96.40;;;;;;4961955;28;20626;-82
2023/03/23 08:46:30;;;;;;;4.88;1.10;;;11.90;96.40;;;;;;4970753;28;20046;-82
2023/03/23 08:49:14;;;;;;;3.40;0.70;;;11.90;96.40;;;;;;4977384;28;20045;-82
2023/03/23 08:52:00;;;;;;;5.63;1.65;;;12.00;96.40;;;;;;4967484;28;20039;-83
2023/03/23 08:54:53;;;;;;;3.33;1.05;;;12.00;96.30;;;;;;4951729;28;20121;-82
2023/03/23 08:57:35;;;;;;;2.15;0.60;;;12.10;96.20;;;;;;4948204;28;20153;-82
2023/03/23 09:00:28;;;;;;;1.95;0.82;;;12.20;96.20;;;;;;4968031;28;20038;-82
2023/03/23 09:03:23;;;;;;;2.47;0.80;;;12.20;96.00;;;;;;4920157;28;20076;-81
2023/03/23 09:06:07;;;;;;;5.07;0.70;;;12.20;95.90;;;;;;4963520;28;20479;-81
2023/03/23 09:08:55;;;;;;;3.72;0.43;;;12.20;95.80;;;;;;4981461;28;20045;-83
2023/03/23 09:11:22;;;;;;;2.60;0.73;;;12.20;95.80;;;;;;4960227;28;20038;-82
2023/03/23 09:13:48;;;;;;;1.77;0.50;;;12.20;95.70;;;;;;4970533;28;20126;-81
2023/03/23 09:16:14;;;;;;;2.25;0.50;;;12.30;95.70;;;;;;4945115;28;20129;-80
2023/03/23 09:18:40;;;;;;;2.30;0.63;;;12.30;95.50;;;;;;4988973;28;20097;-81
2023/03/23 09:21:06;;;;;;;2.25;0.47;;;12.40;95.40;;;;;;4961477;28;20498;-81
2023/03/23 09:23:32;;;;;;;2.72;0.55;;;12.50;95.20;;;;;;4961279;28;20038;-80
2023/03/23 09:26:03;;;;;;;2.65;0.60;;;12.50;94.80;;;;;;4937639;28;20034;-81
2023/03/23 09:28:31;;;;;;;3.92;0.80;;;12.60;94.60;;;;;;4961106;28;20046;-81
2023/03/23 09:31:00;;;;;;;3.13;0.80;;;12.70;94.50;;;;;;4945950;28;20493;-81
2023/03/23 09:33:26;;;;;;;2.70;0.45;;;12.70;94.30;;;;;;4964301;28;20055;-81
2023/03/23 09:35:53;;;;;;;4.03;0.60;;;12.70;94.20;;;;;;4951410;28;20050;-80
2023/03/23 09:38:19;;;;;;;1.90;0.20;;;12.80;94.10;;;;;;4995454;28;20034;-80
2023/03/23 09:41:13;;;;;;;2.92;0.40;;;12.90;94.10;;;;;;4965900;28;20497;-81
2023/03/23 09:43:48;;;;;;;1.60;0.30;;;12.90;93.90;;;;;;4942589;28;20053;-81
2023/03/23 09:46:16;;;;;;;2.92;0.47;;;13.00;93.70;;;;;;4980533;28;20129;-81
2023/03/23 09:48:53;;;;;;;2.63;0.38;;;13.10;93.20;;;;;;4964251;28;20038;-81
2023/03/23 09:51:40;;;;;;;5.72;0.88;;;13.00;92.90;;;;;;4964273;28;20084;-81
2023/03/23 09:54:31;;;;;;;4.75;0.50;;;13.00;92.80;;;;;;4983012;28;20076;-81
2023/03/23 09:57:00;;;;;;;1.75;0.40;;;13.00;92.60;;;;;;4984981;28;20038;-81
2023/03/23 10:00:04;;;;;;;5.63;1.23;;;13.10;92.70;;;;;;4995999;28;20030;-81
2023/03/23 10:03:06;;;;;;;8.13;0.90;;;13.30;92.20;;;;;;4997079;28;20510;-80
2023/03/23 10:05:51;;;;;;;1.60;0.50;;;13.30;91.80;;;;;;4979927;28;20049;-80
2023/03/23 10:08:32;;;;;;;6.90;0.93;;;13.30;92.00;;;;;;4986727;28;20053;-80
2023/03/23 10:11:10;;;;;;;5.95;0.90;;;13.40;91.90;;;;;;4963668;28;20034;-81
2023/03/23 10:14:05;;;;;;;5.82;1.38;;;13.60;91.90;;;;;;4993215;28;20119;-81
2023/03/23 10:16:51;;;;;;;4.28;0.93;;;13.90;91.40;;;;;;4965303;28;20068;-82
2023/03/23 10:19:44;;;;;;;4.10;0.90;;;13.90;90.90;;;;;;4995859;28;20383;-82
2023/03/23 10:22:12;;;;;;;7.88;1.15;;;14.00;90.60;;;;;;4968479;28;20037;-81
2023/03/23 10:25:01;;;;;;;7.75;1.17;;;14.00;90.20;;;;;;4979680;28;20030;-81
2023/03/23 10:28:04;;;;;;;5.95;0.77;;;14.10;90.20;;;;;;4969008;28;20038;-81
2023/03/23 10:30:38;;;;;;;5.38;0.75;;;14.00;90.10;;;;;;4995369;28;20049;-86
2023/03/23 10:33:13;;;;;;;4.55;1.10;;;14.10;89.80;;;;;;4972052;28;20060;-84
2023/03/23 10:35:43;;;;;;;9.93;1.10;;;14.00;89.20;;;;;;4972853;28;20119;-83
2023/03/23 10:38:23;;;;;;;6.68;1.00;;;14.10;89.00;;;;;;4963967;28;20056;-84
2023/03/23 10:41:17;;;;;;;5.15;0.88;;;14.20;88.70;;;;;;4968830;28;20057;-85
2023/03/23 10:43:49;;;;;;;6.40;1.10;;;14.20;88.40;;;;;;4979749;28;20096;-83
2023/03/23 10:46:30;;;;;;;9.70;1.58;;;14.30;87.50;;;;;;4979440;28;20501;-82
2023/03/23 10:48:59;;;;;;;9.65;1.30;;;14.20;86.60;;;;;;4979992;28;20116;-84
2023/03/23 10:51:40;;;;;;;7.25;1.13;;;14.10;86.50;;;;;;4979771;28;20096;-84
2023/03/23 10:54:06;;;;;;;9.07;1.40;;;14.20;85.90;;;;;;4980200;28;20053;-84
2023/03/23 10:56:44;;;;;;;5.82;1.33;;;14.20;85.90;;;;;;4963811;28;20474;-85
2023/03/23 10:59:32;;;;;;;5.50;1.23;;;14.30;85.90;;;;;;4964694;28;20049;-86
2023/03/23 11:02:03;;;;;;;5.43;1.38;;;14.40;85.20;;;;;;4999908;28;20033;-85
2023/03/23 11:04:31;;;;;;;6.85;1.13;;;14.40;84.30;;;;;;4980089;28;20490;-88
2023/03/23 11:07:02;;;;;;;5.55;0.93;;;14.50;83.20;;;;;;4980643;28;20065;-86
2023/03/23 11:09:50;;;;;;;9.45;1.15;;;14.60;83.70;;;;;;4975080;28;20161;-85
2023/03/23 11:12:18;;;;;;;7.45;1.20;;;14.80;83.30;;;;;;4960437;28;20045;-84
2023/03/23 11:14:45;;;;;;;8.48;1.48;;;14.90;82.60;;;;;;4948912;28;20117;-85
2023/03/23 11:17:24;;;;;;;7.50;1.23;;;14.90;81.80;;;;;;4980077;28;20108;-85
2023/03/23 11:19:54;;;;;;;4.97;0.90;;;15.00;81.40;;;;;;4967865;28;20367;-84
2023/03/23 11:22:29;;;;;;;5.53;1.25;;;14.90;81.40;;;;;;4973974;28;20038;-84
2023/03/23 11:25:04;;;;;;;6.95;1.23;;;14.80;81.20;;;;;;4981459;28;20042;-86
2023/03/23 11:27:32;;;;;;;8.48;1.42;;;14.70;81.00;;;;;;4984267;28;20034;-87
2023/03/23 11:30:10;;;;;;;6.28;1.40;;;14.70;80.70;;;;;;4963504;28;20053;-83
2023/03/23 11:32:36;;;;;;;3.42;0.80;;;14.70;80.40;;;;;;4983147;28;20037;-83
2023/03/23 11:35:05;;;;;;;4.13;0.80;;;14.80;80.90;;;;;;4951007;28;20433;-83
2023/03/23 11:37:40;;;;;;;4.30;1.38;;;14.90;80.20;;;;;;4983412;28;20046;-86
2023/03/23 11:40:10;;;;;;;5.85;0.90;;;15.00;80.50;;;;;;4972611;28;20056;-85
2023/03/23 11:42:50;;;;;;;5.32;1.13;;;15.20;80.10;;;;;;4983084;28;20071;-84
2023/03/23 11:45:25;;;;;;;5.80;1.10;;;15.40;79.50;;;;;;4966888;28;20034;-84
2023/03/23 11:47:54;;;;;;;2.60;0.73;;;15.30;79.30;;;;;;4967754;28;20033;-81
2023/03/23 11:50:45;;;;;;;4.15;0.90;;;15.30;79.40;;;;;;4982676;28;20069;-81
2023/03/23 11:53:18;;;;;;;6.38;1.13;;;15.30;79.10;;;;;;4983304;28;20046;-82
2023/03/23 11:55:44;;;;;;;5.68;1.00;;;15.20;79.30;;;;;;4982603;28;20129;-82
2023/03/23 11:58:16;;;;;;;7.65;1.13;;;15.20;79.50;;;;;;4971751;28;20038;-80
2023/03/23 12:00:56;;;;;;;7.43;1.13;;;15.20;79.90;;;;;;4962955;28;20042;-79
2023/03/23 12:03:42;;;;;;;4.07;0.77;;;15.10;79.90;;;;;;4983549;28;20129;-82
2023/03/23 12:06:12;;;;;;;4.72;1.00;;;15.10;80.20;;;;;;4967708;28;20041;-86
2023/03/23 12:08:44;;;;;;;2.58;1.15;;;15.00;80.30;;;;;;4984889;28;20073;-81
2023/03/23 12:11:23;;;;;;;3.40;0.65;;;14.90;80.90;;;;;;4982138;28;20121;-80
2023/03/23 12:13:55;;;;;;;4.47;1.15;;;14.90;81.40;;;;;;4982220;28;20041;-81
2023/03/23 12:16:50;;;;;;;2.78;0.43;;;14.90;81.60;;;;;;4982019;28;20038;-81
2023/03/23 12:19:39;;;;;;;1.48;0.43;;;15.00;81.60;;;;;;4969755;28;20050;-83
2023/03/23 12:22:29;;;;;;;2.97;0.80;;;14.90;82.10;;;;;;4991503;28;20457;-80
2023/03/23 12:24:55;;;;;;;3.00;0.80;;;14.80;82.80;;;;;;4981916;28;20056;-82
2023/03/23 12:27:33;;;;;;;4.05;1.08;;;14.70;83.40;;;;;;4965599;28;20133;-82
2023/03/23 12:30:04;;;;;;;5.10;0.80;;;14.90;83.60;;;;;;4980292;28;20072;-81
2023/03/23 12:33:02;;;;;;;3.08;0.90;;;15.10;83.30;;;;;;4981588;28;20449;-81
2023/03/23 12:35:51;;;;;;;4.80;1.40;;;15.20;83.00;;;;;;4981811;28;20094;-82
2023/03/23 12:38:43;;;;;;;5.03;1.52;;;15.40;82.40;;;;;;5000876;28;20048;-82
2023/03/23 12:41:15;;;;;;;5.88;1.55;;;15.40;82.80;;;;;;4955304;28;20556;-80
2023/03/23 12:43:44;;;;;;;3.13;1.10;;;15.40;82.30;;;;;;4981539;28;20053;-80
2023/03/23 12:46:36;;;;;;;3.22;1.42;;;15.40;82.00;;;;;;4981420;28;20061;-81
2023/03/23 12:49:29;;;;;;;4.22;1.30;;;15.40;80.60;;;;;;4958861;28;20049;-80
2023/03/23 12:52:11;;;;;;;1.92;0.80;;;15.30;81.20;;;;;;4984714;28;20073;-80
2023/03/23 12:55:08;;;;;;;2.65;1.10;;;15.20;81.30;;;;;;4981330;28;20025;-80
2023/03/23 12:57:43;;;;;;;6.60;1.17;;;15.10;81.70;;;;;;4977693;28;20042;-83
2023/03/23 13:00:27;;;;;;;6.95;1.17;;;14.80;82.00;;;;;;4984408;28;20516;-86
2023/03/23 13:03:10;;;;;;;3.92;0.90;;;14.50;82.00;;;;;;4972896;28;20042;-86
2023/03/23 13:05:40;;;;;;;;;;;14.10;83.30;;;;;;4984956;28;20129;-87
2023/03/23 13:08:18;;;;;;;6.50;1.63;;;13.60;85.70;;;;;;4980408;28;20338;-81
2023/03/23 13:10:54;;;;;;;7.50;1.00;;;13.00;89.40;;;;;;4961678;28;20038;-83
2023/03/23 13:13:24;;;;;;;6.30;1.60;;;12.60;90.90;;;;;;4977798;28;20101;-82
2023/03/23 13:16:03;;;;;;;6.13;1.45;;;12.50;91.40;;;;;;4945588;28;20121;-83
2023/03/23 13:19:02;;;;;;;4.50;1.20;;;12.40;91.80;;;;;;4945418;28;20046;-83
2023/03/23 13:21:34;;;;;;;6.30;1.27;;;12.20;92.30;;;;;;4945628;28;20042;-82
2023/03/23 13:24:10;;;;;;;4.65;0.93;;;12.10;92.80;;;;;;4946530;28;20034;-86
2023/03/23 13:26:43;;;;;;;3.72;0.93;;;12.10;93.20;;;;;;4963895;28;20042;-85
2023/03/23 13:29:21;;;;;;;2.92;0.80;;;12.00;93.70;;;;;;4964807;28;20053;-86
2023/03/23 13:31:49;;;;;;;4.80;0.88;;;12.00;93.90;;;;;;4965676;28;20037;-86